sensor_id;sensor_type;location;lat;lon;timestamp;temperature;humidity
46438;DHT22;32137;48.728;9.142;2023-05-16T00:00:03;14.00;1.00
46438;DHT22;32137;48.728;9.142;2023-05-16T00:02:34;14.00;1.00
46438;DHT22;32137;48.728;9.142;2023-05-16T00:05:01;14.00;1.00
46438;DHT22;32137;48.728;9.142;2023-05-16T00:07:26;14.00;1.00
46438;DHT22;32137;48.728;9.142;2023-05-16T00:09:52;14.00;1.00
46438;DHT22;32137;48.728;9.142;2023-05-16T00:12:17;14.00;1.00
46438;DHT22;32137;48.728;9.142;2023-05-16T00:14:44;14.00;1.00
46438;DHT22;32137;48.728;9.142;2023-05-16T00:17:09;13.90;1.00
46438;DHT22;32137;48.728;9.142;2023-05-16T00:19:39;13.90;1.00
46438;DHT22;32137;48.728;9.142;2023-05-16T00:22:06;13.90;1.00
46438;DHT22;32137;48.728;9.142;2023-05-16T00:24:32;13.90;1.00
46438;DHT22;32137;48.728;9.142;2023-05-16T00:26:58;13.90;1.00
46438;DHT22;32137;48.728;9.142;2023-05-16T00:29:23;13.80;1.00
46438;DHT22;32137;48.728;9.142;2023-05-16T00:31:49;13.80;1.00
46438;DHT22;32137;48.728;9.142;2023-05-16T00:34:15;13.80;1.00
46438;DHT22;32137;48.728;9.142;2023-05-16T00:36:40;13.80;1.00
46438;DHT22;32137;48.728;9.142;2023-05-16T00:39:06;13.80;1.00
46438;DHT22;32137;48.728;9.142;2023-05-16T00:41:33;13.80;1.00
46438;DHT22;32137;48.728;9.142;2023-05-16T00:43:58;13.80;1.00
46438;DHT22;32137;48.728;9.142;2023-05-16T00:46:24;13.80;1.00
46438;DHT22;32137;48.728;9.142;2023-05-16T00:48:50;13.80;1.00
46438;DHT22;32137;48.728;9.142;2023-05-16T00:51:16;13.70;1.00
46438;DHT22;32137;48.728;9.142;2023-05-16T00:53:42;13.70;1.00
46438;DHT22;32137;48.728;9.142;2023-05-16T00:56:08;13.70;1.00
46438;DHT22;32137;48.728;9.142;2023-05-16T00:58:35;13.60;1.00
46438;DHT22;32137;48.728;9.142;2023-05-16T01:01:01;13.70;1.00
46438;DHT22;32137;48.728;9.142;2023-05-16T01:03:28;13.60;1.00
46438;DHT22;32137;48.728;9.142;2023-05-16T01:05:54;13.60;1.00
46438;DHT22;32137;48.728;9.142;2023-05-16T01:08:20;13.60;1.00
46438;DHT22;32137;48.728;9.142;2023-05-16T01:10:58;13.60;1.00
46438;DHT22;32137;48.728;9.142;2023-05-16T01:13:47;13.60;1.00
46438;DHT22;32137;48.728;9.142;2023-05-16T01:16:45;13.60;1.00
46438;DHT22;32137;48.728;9.142;2023-05-16T01:19:31;13.50;1.00
46438;DHT22;32137;48.728;9.142;2023-05-16T01:22:15;13.50;1.00
46438;DHT22;32137;48.728;9.142;2023-05-16T01:25:26;13.50;1.00
46438;DHT22;32137;48.728;9.142;2023-05-16T01:27:56;13.40;1.00
46438;DHT22;32137;48.728;9.142;2023-05-16T01:30:22;13.50;1.00
46438;DHT22;32137;48.728;9.142;2023-05-16T01:32:48;13.40;1.00
46438;DHT22;32137;48.728;9.142;2023-05-16T01:35:15;13.40;1.00
46438;DHT22;32137;48.728;9.142;2023-05-16T01:38:17;13.30;1.00
46438;DHT22;32137;48.728;9.142;2023-05-16T01:43:41;13.30;1.00
46438;DHT22;32137;48.728;9.142;2023-05-16T01:46:14;13.30;1.00
46438;DHT22;32137;48.728;9.142;2023-05-16T01:49:09;13.20;1.00
46438;DHT22;32137;48.728;9.142;2023-05-16T01:51:44;13.20;1.00
46438;DHT22;32137;48.728;9.142;2023-05-16T01:54:17;13.20;1.00
46438;DHT22;32137;48.728;9.142;2023-05-16T01:56:52;13.20;1.00
46438;DHT22;32137;48.728;9.142;2023-05-16T01:59:20;13.10;1.00
46438;DHT22;32137;48.728;9.142;2023-05-16T02:01:46;13.00;1.00
46438;DHT22;32137;48.728;9.142;2023-05-16T02:04:12;13.00;1.00
46438;DHT22;32137;48.728;9.142;2023-05-16T02:06:40;13.00;1.00
46438;DHT22;32137;48.728;9.142;2023-05-16T02:09:06;13.00;1.00
46438;DHT22;32137;48.728;9.142;2023-05-16T02:11:31;12.90;1.00
46438;DHT22;32137;48.728;9.142;2023-05-16T02:13:57;12.90;1.00
46438;DHT22;32137;48.728;9.142;2023-05-16T02:16:23;12.90;1.00
46438;DHT22;32137;48.728;9.142;2023-05-16T02:18:48;12.90;1.00
46438;DHT22;32137;48.728;9.142;2023-05-16T02:21:14;12.80;1.00
46438;DHT22;32137;48.728;9.142;2023-05-16T02:23:39;12.80;1.00
46438;DHT22;32137;48.728;9.142;2023-05-16T02:26:05;12.80;1.00
46438;DHT22;32137;48.728;9.142;2023-05-16T02:28:31;12.80;1.00
46438;DHT22;32137;48.728;9.142;2023-05-16T02:31:00;12.80;1.00
46438;DHT22;32137;48.728;9.142;2023-05-16T02:33:27;12.80;1.00
46438;DHT22;32137;48.728;9.142;2023-05-16T02:35:53;12.70;1.00
46438;DHT22;32137;48.728;9.142;2023-05-16T02:38:19;12.70;1.00
46438;DHT22;32137;48.728;9.142;2023-05-16T02:40:49;12.70;1.00
46438;DHT22;32137;48.728;9.142;2023-05-16T02:43:15;12.70;1.00
46438;DHT22;32137;48.728;9.142;2023-05-16T02:45:40;12.70;1.00
46438;DHT22;32137;48.728;9.142;2023-05-16T02:48:06;12.70;1.00
46438;DHT22;32137;48.728;9.142;2023-05-16T02:50:35;12.70;1.00
46438;DHT22;32137;48.728;9.142;2023-05-16T02:53:01;12.70;1.00
46438;DHT22;32137;48.728;9.142;2023-05-16T02:55:27;12.70;1.00
46438;DHT22;32137;48.728;9.142;2023-05-16T02:57:53;12.60;1.00
46438;DHT22;32137;48.728;9.142;2023-05-16T03:00:19;12.60;1.00
46438;DHT22;32137;48.728;9.142;2023-05-16T03:02:45;12.60;1.00
46438;DHT22;32137;48.728;9.142;2023-05-16T03:05:11;12.60;1.00
46438;DHT22;32137;48.728;9.142;2023-05-16T03:07:37;12.60;1.00
46438;DHT22;32137;48.728;9.142;2023-05-16T03:10:03;12.60;1.00
46438;DHT22;32137;48.728;9.142;2023-05-16T03:12:29;12.60;1.00
46438;DHT22;32137;48.728;9.142;2023-05-16T03:14:55;12.50;1.00
46438;DHT22;32137;48.728;9.142;2023-05-16T03:17:20;12.50;1.00
46438;DHT22;32137;48.728;9.142;2023-05-16T03:19:46;12.50;1.00
46438;DHT22;32137;48.728;9.142;2023-05-16T03:22:11;12.50;1.00
46438;DHT22;32137;48.728;9.142;2023-05-16T03:24:40;12.50;1.00
46438;DHT22;32137;48.728;9.142;2023-05-16T03:27:06;12.40;1.00
46438;DHT22;32137;48.728;9.142;2023-05-16T03:29:32;12.40;1.00
46438;DHT22;32137;48.728;9.142;2023-05-16T03:31:58;12.40;1.00
46438;DHT22;32137;48.728;9.142;2023-05-16T03:34:23;12.40;1.00
46438;DHT22;32137;48.728;9.142;2023-05-16T03:36:49;12.40;1.00
46438;DHT22;32137;48.728;9.142;2023-05-16T03:39:15;12.30;1.00
46438;DHT22;32137;48.728;9.142;2023-05-16T03:41:41;12.30;1.00
46438;DHT22;32137;48.728;9.142;2023-05-16T03:44:07;12.30;1.00
46438;DHT22;32137;48.728;9.142;2023-05-16T03:46:32;12.30;1.00
46438;DHT22;32137;48.728;9.142;2023-05-16T03:48:59;12.30;1.00
46438;DHT22;32137;48.728;9.142;2023-05-16T03:51:24;12.20;1.00
46438;DHT22;32137;48.728;9.142;2023-05-16T03:53:50;12.20;1.00
46438;DHT22;32137;48.728;9.142;2023-05-16T03:56:15;12.10;1.00
46438;DHT22;32137;48.728;9.142;2023-05-16T03:58:41;12.10;1.00
46438;DHT22;32137;48.728;9.142;2023-05-16T04:01:07;12.00;6.70
46438;DHT22;32137;48.728;9.142;2023-05-16T04:03:32;12.00;10.30
46438;DHT22;32137;48.728;9.142;2023-05-16T04:05:58;12.00;20.20
46438;DHT22;32137;48.728;9.142;2023-05-16T04:08:24;12.00;14.00
46438;DHT22;32137;48.728;9.142;2023-05-16T04:10:50;12.00;21.60
46438;DHT22;32137;48.728;9.142;2023-05-16T04:13:16;12.00;6.10
46438;DHT22;32137;48.728;9.142;2023-05-16T04:15:42;12.00;22.50
46438;DHT22;32137;48.728;9.142;2023-05-16T04:18:07;12.00;24.00
46438;DHT22;32137;48.728;9.142;2023-05-16T04:20:33;12.10;19.20
46438;DHT22;32137;48.728;9.142;2023-05-16T04:22:59;12.10;16.20
46438;DHT22;32137;48.728;9.142;2023-05-16T04:25:25;12.00;20.50
46438;DHT22;32137;48.728;9.142;2023-05-16T04:27:50;12.00;29.70
46438;DHT22;32137;48.728;9.142;2023-05-16T04:30:16;12.00;35.20
46438;DHT22;32137;48.728;9.142;2023-05-16T04:32:42;12.10;40.50
46438;DHT22;32137;48.728;9.142;2023-05-16T04:35:08;12.00;40.70
46438;DHT22;32137;48.728;9.142;2023-05-16T04:37:34;12.10;43.40
46438;DHT22;32137;48.728;9.142;2023-05-16T04:40:00;12.20;45.70
46438;DHT22;32137;48.728;9.142;2023-05-16T04:42:26;12.20;30.30
46438;DHT22;32137;48.728;9.142;2023-05-16T04:44:51;12.20;26.10
46438;DHT22;32137;48.728;9.142;2023-05-16T04:47:17;12.20;30.90
46438;DHT22;32137;48.728;9.142;2023-05-16T04:49:43;12.30;38.00
46438;DHT22;32137;48.728;9.142;2023-05-16T04:52:08;12.30;23.00
46438;DHT22;32137;48.728;9.142;2023-05-16T04:54:34;12.30;26.30
46438;DHT22;32137;48.728;9.142;2023-05-16T04:57:00;12.40;14.80
46438;DHT22;32137;48.728;9.142;2023-05-16T04:59:26;12.30;15.80
46438;DHT22;32137;48.728;9.142;2023-05-16T05:01:51;12.40;26.60
46438;DHT22;32137;48.728;9.142;2023-05-16T05:04:17;12.30;18.70
46438;DHT22;32137;48.728;9.142;2023-05-16T05:06:42;12.40;24.70
46438;DHT22;32137;48.728;9.142;2023-05-16T05:09:08;12.40;12.80
46438;DHT22;32137;48.728;9.142;2023-05-16T05:11:34;12.30;19.70
46438;DHT22;32137;48.728;9.142;2023-05-16T05:14:00;12.40;25.10
46438;DHT22;32137;48.728;9.142;2023-05-16T05:16:25;12.40;22.50
46438;DHT22;32137;48.728;9.142;2023-05-16T05:18:51;12.40;15.60
46438;DHT22;32137;48.728;9.142;2023-05-16T05:21:17;12.40;17.00
46438;DHT22;32137;48.728;9.142;2023-05-16T05:23:44;12.40;14.90
46438;DHT22;32137;48.728;9.142;2023-05-16T05:26:10;12.40;19.10
46438;DHT22;32137;48.728;9.142;2023-05-16T05:28:36;12.40;17.40
46438;DHT22;32137;48.728;9.142;2023-05-16T05:31:03;12.50;15.40
46438;DHT22;32137;48.728;9.142;2023-05-16T05:33:29;12.40;20.90
46438;DHT22;32137;48.728;9.142;2023-05-16T05:35:55;12.40;17.50
46438;DHT22;32137;48.728;9.142;2023-05-16T05:38:21;12.40;20.70
46438;DHT22;32137;48.728;9.142;2023-05-16T05:40:47;12.40;19.30
46438;DHT22;32137;48.728;9.142;2023-05-16T05:43:14;12.40;18.10
46438;DHT22;32137;48.728;9.142;2023-05-16T05:45:39;12.40;21.70
46438;DHT22;32137;48.728;9.142;2023-05-16T05:48:05;12.40;22.70
46438;DHT22;32137;48.728;9.142;2023-05-16T05:50:31;12.50;11.90
46438;DHT22;32137;48.728;9.142;2023-05-16T05:52:57;12.50;12.10
46438;DHT22;32137;48.728;9.142;2023-05-16T05:55:22;12.50;11.50
46438;DHT22;32137;48.728;9.142;2023-05-16T05:57:48;12.50;13.40
46438;DHT22;32137;48.728;9.142;2023-05-16T06:00:13;12.50;8.30
46438;DHT22;32137;48.728;9.142;2023-05-16T06:02:40;12.50;11.80
46438;DHT22;32137;48.728;9.142;2023-05-16T06:05:06;12.50;10.60
46438;DHT22;32137;48.728;9.142;2023-05-16T06:07:31;12.50;6.90
46438;DHT22;32137;48.728;9.142;2023-05-16T06:09:57;12.50;9.70
46438;DHT22;32137;48.728;9.142;2023-05-16T06:12:24;12.50;13.00
46438;DHT22;32137;48.728;9.142;2023-05-16T06:14:49;12.50;9.40
46438;DHT22;32137;48.728;9.142;2023-05-16T06:17:15;12.50;6.90
46438;DHT22;32137;48.728;9.142;2023-05-16T06:19:40;12.50;1.10
46438;DHT22;32137;48.728;9.142;2023-05-16T06:22:06;12.50;6.60
46438;DHT22;32137;48.728;9.142;2023-05-16T06:24:31;12.60;4.50
46438;DHT22;32137;48.728;9.142;2023-05-16T06:26:57;12.60;3.50
46438;DHT22;32137;48.728;9.142;2023-05-16T06:29:22;12.70;1.00
46438;DHT22;32137;48.728;9.142;2023-05-16T06:31:48;12.70;1.00
46438;DHT22;32137;48.728;9.142;2023-05-16T06:34:13;12.70;1.00
46438;DHT22;32137;48.728;9.142;2023-05-16T06:36:39;12.70;1.00
46438;DHT22;32137;48.728;9.142;2023-05-16T06:39:04;12.70;1.00
46438;DHT22;32137;48.728;9.142;2023-05-16T06:41:30;12.70;1.00
46438;DHT22;32137;48.728;9.142;2023-05-16T06:43:56;12.70;1.00
46438;DHT22;32137;48.728;9.142;2023-05-16T06:46:21;12.80;1.00
46438;DHT22;32137;48.728;9.142;2023-05-16T06:48:47;12.80;1.00
46438;DHT22;32137;48.728;9.142;2023-05-16T06:51:12;12.80;1.00
46438;DHT22;32137;48.728;9.142;2023-05-16T06:53:38;12.80;1.00
46438;DHT22;32137;48.728;9.142;2023-05-16T06:56:03;12.80;1.00
46438;DHT22;32137;48.728;9.142;2023-05-16T06:58:29;12.80;1.00
46438;DHT22;32137;48.728;9.142;2023-05-16T07:00:55;12.80;1.00
46438;DHT22;32137;48.728;9.142;2023-05-16T07:03:20;12.80;1.00
46438;DHT22;32137;48.728;9.142;2023-05-16T07:05:46;12.70;1.00
46438;DHT22;32137;48.728;9.142;2023-05-16T07:08:11;12.70;1.00
46438;DHT22;32137;48.728;9.142;2023-05-16T07:10:38;12.70;1.00
46438;DHT22;32137;48.728;9.142;2023-05-16T07:13:04;12.70;1.00
46438;DHT22;32137;48.728;9.142;2023-05-16T07:15:30;12.70;1.00
46438;DHT22;32137;48.728;9.142;2023-05-16T07:17:56;12.70;1.00
46438;DHT22;32137;48.728;9.142;2023-05-16T07:20:22;12.70;1.00
46438;DHT22;32137;48.728;9.142;2023-05-16T07:22:47;12.70;1.00
46438;DHT22;32137;48.728;9.142;2023-05-16T07:25:13;12.80;1.00
46438;DHT22;32137;48.728;9.142;2023-05-16T07:27:40;12.80;1.00
46438;DHT22;32137;48.728;9.142;2023-05-16T07:30:08;12.90;1.00
46438;DHT22;32137;48.728;9.142;2023-05-16T07:32:34;12.90;1.00
46438;DHT22;32137;48.728;9.142;2023-05-16T07:34:59;13.00;1.00
46438;DHT22;32137;48.728;9.142;2023-05-16T07:37:25;13.00;1.00
46438;DHT22;32137;48.728;9.142;2023-05-16T07:39:50;12.90;1.00
46438;DHT22;32137;48.728;9.142;2023-05-16T07:42:16;13.00;1.00
46438;DHT22;32137;48.728;9.142;2023-05-16T07:44:41;12.90;1.00
46438;DHT22;32137;48.728;9.142;2023-05-16T07:47:06;12.90;1.00
46438;DHT22;32137;48.728;9.142;2023-05-16T07:49:32;12.90;1.00
46438;DHT22;32137;48.728;9.142;2023-05-16T07:51:57;12.90;1.00
46438;DHT22;32137;48.728;9.142;2023-05-16T07:54:23;13.00;1.00
46438;DHT22;32137;48.728;9.142;2023-05-16T07:56:48;13.00;1.00
46438;DHT22;32137;48.728;9.142;2023-05-16T07:59:14;13.10;1.00
46438;DHT22;32137;48.728;9.142;2023-05-16T08:01:39;13.20;1.00
46438;DHT22;32137;48.728;9.142;2023-05-16T08:04:05;13.20;1.00
46438;DHT22;32137;48.728;9.142;2023-05-16T08:06:31;13.30;1.00
46438;DHT22;32137;48.728;9.142;2023-05-16T08:08:56;13.20;1.00
46438;DHT22;32137;48.728;9.142;2023-05-16T08:11:22;13.30;1.00
46438;DHT22;32137;48.728;9.142;2023-05-16T08:13:48;13.30;1.00
46438;DHT22;32137;48.728;9.142;2023-05-16T08:16:13;13.40;1.00
46438;DHT22;32137;48.728;9.142;2023-05-16T08:18:38;13.40;1.00
46438;DHT22;32137;48.728;9.142;2023-05-16T08:21:04;13.40;1.00
46438;DHT22;32137;48.728;9.142;2023-05-16T08:23:30;13.40;1.00
46438;DHT22;32137;48.728;9.142;2023-05-16T08:25:55;13.40;1.00
46438;DHT22;32137;48.728;9.142;2023-05-16T08:28:21;13.30;1.00
46438;DHT22;32137;48.728;9.142;2023-05-16T08:30:46;13.20;1.00
46438;DHT22;32137;48.728;9.142;2023-05-16T08:33:12;13.10;1.00
46438;DHT22;32137;48.728;9.142;2023-05-16T08:35:42;13.10;1.00
46438;DHT22;32137;48.728;9.142;2023-05-16T08:38:08;13.10;1.00
46438;DHT22;32137;48.728;9.142;2023-05-16T08:40:33;13.00;1.00
46438;DHT22;32137;48.728;9.142;2023-05-16T08:42:59;13.10;1.00
46438;DHT22;32137;48.728;9.142;2023-05-16T08:45:25;13.10;1.00
46438;DHT22;32137;48.728;9.142;2023-05-16T08:47:50;13.10;1.00
46438;DHT22;32137;48.728;9.142;2023-05-16T08:50:18;13.10;1.00
46438;DHT22;32137;48.728;9.142;2023-05-16T08:52:43;13.00;1.00
46438;DHT22;32137;48.728;9.142;2023-05-16T08:55:11;13.00;1.00
46438;DHT22;32137;48.728;9.142;2023-05-16T08:57:38;13.10;1.00
46438;DHT22;32137;48.728;9.142;2023-05-16T09:00:04;13.10;1.00
46438;DHT22;32137;48.728;9.142;2023-05-16T09:02:39;13.10;1.00
46438;DHT22;32137;48.728;9.142;2023-05-16T09:05:05;13.00;1.00
46438;DHT22;32137;48.728;9.142;2023-05-16T09:07:32;13.00;1.00
46438;DHT22;32137;48.728;9.142;2023-05-16T09:09:58;13.00;1.00
46438;DHT22;32137;48.728;9.142;2023-05-16T09:12:23;13.00;1.00
46438;DHT22;32137;48.728;9.142;2023-05-16T09:14:48;13.10;1.00
46438;DHT22;32137;48.728;9.142;2023-05-16T09:17:14;13.10;1.00
46438;DHT22;32137;48.728;9.142;2023-05-16T09:19:41;13.10;1.00
46438;DHT22;32137;48.728;9.142;2023-05-16T09:22:10;13.00;1.00
46438;DHT22;32137;48.728;9.142;2023-05-16T09:24:42;13.00;1.00
46438;DHT22;32137;48.728;9.142;2023-05-16T09:27:09;13.00;1.00
46438;DHT22;32137;48.728;9.142;2023-05-16T09:29:34;12.90;2.60
46438;DHT22;32137;48.728;9.142;2023-05-16T09:32:04;12.90;11.50
46438;DHT22;32137;48.728;9.142;2023-05-16T09:34:30;13.00;1.00
46438;DHT22;32137;48.728;9.142;2023-05-16T09:36:55;13.10;39.60
46438;DHT22;32137;48.728;9.142;2023-05-16T09:39:21;13.20;1.00
46438;DHT22;32137;48.728;9.142;2023-05-16T09:41:49;13.30;1.00
46438;DHT22;32137;48.728;9.142;2023-05-16T09:44:16;13.40;1.00
46438;DHT22;32137;48.728;9.142;2023-05-16T09:46:42;13.50;1.00
46438;DHT22;32137;48.728;9.142;2023-05-16T09:49:10;13.60;1.00
46438;DHT22;32137;48.728;9.142;2023-05-16T09:51:37;13.70;1.00
46438;DHT22;32137;48.728;9.142;2023-05-16T09:54:06;13.70;1.00
46438;DHT22;32137;48.728;9.142;2023-05-16T09:56:31;13.60;1.00
46438;DHT22;32137;48.728;9.142;2023-05-16T09:58:57;13.70;1.00
46438;DHT22;32137;48.728;9.142;2023-05-16T10:01:22;13.60;1.00
46438;DHT22;32137;48.728;9.142;2023-05-16T10:03:49;13.70;1.00
46438;DHT22;32137;48.728;9.142;2023-05-16T10:06:15;13.70;1.00
46438;DHT22;32137;48.728;9.142;2023-05-16T10:08:41;13.70;1.00
46438;DHT22;32137;48.728;9.142;2023-05-16T10:11:07;13.70;1.00
46438;DHT22;32137;48.728;9.142;2023-05-16T10:13:33;13.70;1.00
46438;DHT22;32137;48.728;9.142;2023-05-16T10:16:00;13.90;1.00
46438;DHT22;32137;48.728;9.142;2023-05-16T10:18:29;14.00;1.00
46438;DHT22;32137;48.728;9.142;2023-05-16T10:20:56;14.10;1.00
46438;DHT22;32137;48.728;9.142;2023-05-16T10:23:21;14.30;1.00
46438;DHT22;32137;48.728;9.142;2023-05-16T10:25:49;14.40;1.00
46438;DHT22;32137;48.728;9.142;2023-05-16T10:28:14;14.50;1.00
46438;DHT22;32137;48.728;9.142;2023-05-16T10:30:41;14.60;1.00
46438;DHT22;32137;48.728;9.142;2023-05-16T10:33:11;14.60;99.90
46438;DHT22;32137;48.728;9.142;2023-05-16T10:35:37;14.60;99.90
46438;DHT22;32137;48.728;9.142;2023-05-16T10:38:03;14.70;99.90
46438;DHT22;32137;48.728;9.142;2023-05-16T10:40:29;14.60;1.00
46438;DHT22;32137;48.728;9.142;2023-05-16T10:42:56;14.70;99.90
46438;DHT22;32137;48.728;9.142;2023-05-16T10:45:21;14.80;99.90
46438;DHT22;32137;48.728;9.142;2023-05-16T10:47:51;14.70;99.90
46438;DHT22;32137;48.728;9.142;2023-05-16T10:50:29;14.60;99.90
46438;DHT22;32137;48.728;9.142;2023-05-16T10:52:55;14.40;99.90
46438;DHT22;32137;48.728;9.142;2023-05-16T10:55:20;14.20;99.90
46438;DHT22;32137;48.728;9.142;2023-05-16T10:57:46;14.10;1.00
46438;DHT22;32137;48.728;9.142;2023-05-16T11:00:20;14.00;1.00
46438;DHT22;32137;48.728;9.142;2023-05-16T11:02:46;13.90;1.00
46438;DHT22;32137;48.728;9.142;2023-05-16T11:05:12;13.70;1.10
46438;DHT22;32137;48.728;9.142;2023-05-16T11:07:38;13.60;53.90
46438;DHT22;32137;48.728;9.142;2023-05-16T11:12:42;13.40;99.90
46438;DHT22;32137;48.728;9.142;2023-05-16T11:15:19;13.20;99.90
46438;DHT22;32137;48.728;9.142;2023-05-16T11:17:45;13.10;99.90
46438;DHT22;32137;48.728;9.142;2023-05-16T11:20:23;13.00;99.90
46438;DHT22;32137;48.728;9.142;2023-05-16T11:22:49;12.90;99.90
46438;DHT22;32137;48.728;9.142;2023-05-16T11:25:16;12.90;99.90
46438;DHT22;32137;48.728;9.142;2023-05-16T11:27:59;12.90;99.90
46438;DHT22;32137;48.728;9.142;2023-05-16T11:30:24;12.90;99.90
46438;DHT22;32137;48.728;9.142;2023-05-16T11:32:50;12.80;99.90
46438;DHT22;32137;48.728;9.142;2023-05-16T11:35:16;12.80;99.90
46438;DHT22;32137;48.728;9.142;2023-05-16T11:37:42;12.80;99.90
46438;DHT22;32137;48.728;9.142;2023-05-16T11:40:09;12.60;99.90
46438;DHT22;32137;48.728;9.142;2023-05-16T11:42:37;12.60;99.90
46438;DHT22;32137;48.728;9.142;2023-05-16T11:45:07;12.40;99.90
46438;DHT22;32137;48.728;9.142;2023-05-16T11:47:33;12.40;1.00
46438;DHT22;32137;48.728;9.142;2023-05-16T11:50:02;12.40;1.00
46438;DHT22;32137;48.728;9.142;2023-05-16T11:52:28;12.30;1.00
46438;DHT22;32137;48.728;9.142;2023-05-16T11:54:53;12.30;99.90
46438;DHT22;32137;48.728;9.142;2023-05-16T11:57:19;12.30;99.90
46438;DHT22;32137;48.728;9.142;2023-05-16T11:59:45;12.30;99.90
46438;DHT22;32137;48.728;9.142;2023-05-16T12:02:11;12.30;99.90
46438;DHT22;32137;48.728;9.142;2023-05-16T12:04:37;12.30;99.90
46438;DHT22;32137;48.728;9.142;2023-05-16T12:07:02;12.30;99.90
46438;DHT22;32137;48.728;9.142;2023-05-16T12:09:28;12.30;99.90
46438;DHT22;32137;48.728;9.142;2023-05-16T12:11:54;12.40;99.90
46438;DHT22;32137;48.728;9.142;2023-05-16T12:14:20;12.40;99.90
46438;DHT22;32137;48.728;9.142;2023-05-16T12:16:45;12.40;99.90
46438;DHT22;32137;48.728;9.142;2023-05-16T12:19:11;12.40;99.90
46438;DHT22;32137;48.728;9.142;2023-05-16T12:21:37;12.40;99.90
46438;DHT22;32137;48.728;9.142;2023-05-16T12:24:02;12.40;99.90
46438;DHT22;32137;48.728;9.142;2023-05-16T12:26:29;12.40;99.90
46438;DHT22;32137;48.728;9.142;2023-05-16T12:28:58;12.50;99.90
46438;DHT22;32137;48.728;9.142;2023-05-16T12:31:27;12.50;99.90
46438;DHT22;32137;48.728;9.142;2023-05-16T12:33:53;12.60;99.90
46438;DHT22;32137;48.728;9.142;2023-05-16T12:36:20;12.70;99.90
46438;DHT22;32137;48.728;9.142;2023-05-16T12:38:45;12.80;99.90
46438;DHT22;32137;48.728;9.142;2023-05-16T12:41:16;12.80;99.90
46438;DHT22;32137;48.728;9.142;2023-05-16T12:43:41;12.80;99.90
46438;DHT22;32137;48.728;9.142;2023-05-16T12:46:08;12.80;99.90
46438;DHT22;32137;48.728;9.142;2023-05-16T12:48:34;12.90;87.70
46438;DHT22;32137;48.728;9.142;2023-05-16T12:51:15;12.90;99.90
46438;DHT22;32137;48.728;9.142;2023-05-16T12:53:45;12.80;47.70
46438;DHT22;32137;48.728;9.142;2023-05-16T12:56:11;12.90;59.40
46438;DHT22;32137;48.728;9.142;2023-05-16T12:58:38;12.80;12.70
46438;DHT22;32137;48.728;9.142;2023-05-16T13:01:03;12.80;1.00
46438;DHT22;32137;48.728;9.142;2023-05-16T13:03:30;12.70;6.50
46438;DHT22;32137;48.728;9.142;2023-05-16T13:05:55;12.70;28.30
46438;DHT22;32137;48.728;9.142;2023-05-16T13:08:21;12.70;43.60
46438;DHT22;32137;48.728;9.142;2023-05-16T13:10:46;12.60;29.50
46438;DHT22;32137;48.728;9.142;2023-05-16T13:13:12;12.60;1.30
46438;DHT22;32137;48.728;9.142;2023-05-16T13:15:39;12.60;1.00
46438;DHT22;32137;48.728;9.142;2023-05-16T13:18:04;12.50;1.00
46438;DHT22;32137;48.728;9.142;2023-05-16T13:20:30;12.50;9.80
46438;DHT22;32137;48.728;9.142;2023-05-16T13:22:55;12.50;1.00
46438;DHT22;32137;48.728;9.142;2023-05-16T13:25:21;12.50;1.00
46438;DHT22;32137;48.728;9.142;2023-05-16T13:27:46;12.40;1.00
46438;DHT22;32137;48.728;9.142;2023-05-16T13:30:13;12.40;4.10
46438;DHT22;32137;48.728;9.142;2023-05-16T13:32:39;12.30;1.00
46438;DHT22;32137;48.728;9.142;2023-05-16T13:35:05;12.30;1.00
46438;DHT22;32137;48.728;9.142;2023-05-16T13:37:31;12.10;1.00
46438;DHT22;32137;48.728;9.142;2023-05-16T13:39:56;12.10;1.00
46438;DHT22;32137;48.728;9.142;2023-05-16T13:42:22;12.10;1.00
46438;DHT22;32137;48.728;9.142;2023-05-16T13:44:47;12.10;1.00
46438;DHT22;32137;48.728;9.142;2023-05-16T13:47:13;12.00;1.00
46438;DHT22;32137;48.728;9.142;2023-05-16T13:49:38;12.00;1.00
46438;DHT22;32137;48.728;9.142;2023-05-16T13:52:04;11.90;1.00
46438;DHT22;32137;48.728;9.142;2023-05-16T13:54:29;11.90;1.00
46438;DHT22;32137;48.728;9.142;2023-05-16T13:56:55;11.90;1.00
46438;DHT22;32137;48.728;9.142;2023-05-16T13:59:21;12.00;1.00
46438;DHT22;32137;48.728;9.142;2023-05-16T14:01:47;12.00;1.00
46438;DHT22;32137;48.728;9.142;2023-05-16T14:04:12;12.00;1.00
46438;DHT22;32137;48.728;9.142;2023-05-16T14:06:38;12.00;1.00
46438;DHT22;32137;48.728;9.142;2023-05-16T14:09:03;12.10;1.00
46438;DHT22;32137;48.728;9.142;2023-05-16T14:11:29;12.10;1.00
46438;DHT22;32137;48.728;9.142;2023-05-16T14:13:55;12.10;1.00
46438;DHT22;32137;48.728;9.142;2023-05-16T14:16:20;12.10;1.00
46438;DHT22;32137;48.728;9.142;2023-05-16T14:18:46;12.10;1.00
46438;DHT22;32137;48.728;9.142;2023-05-16T14:21:12;12.10;1.00
46438;DHT22;32137;48.728;9.142;2023-05-16T14:23:37;12.10;1.00
46438;DHT22;32137;48.728;9.142;2023-05-16T14:26:04;12.10;1.00
46438;DHT22;32137;48.728;9.142;2023-05-16T14:28:29;12.10;1.00
46438;DHT22;32137;48.728;9.142;2023-05-16T14:30:57;12.10;1.00
46438;DHT22;32137;48.728;9.142;2023-05-16T14:33:22;12.10;1.00
46438;DHT22;32137;48.728;9.142;2023-05-16T14:35:48;12.10;1.00
46438;DHT22;32137;48.728;9.142;2023-05-16T14:38:14;12.20;1.00
46438;DHT22;32137;48.728;9.142;2023-05-16T14:40:40;12.20;1.00
46438;DHT22;32137;48.728;9.142;2023-05-16T14:43:05;12.20;1.00
46438;DHT22;32137;48.728;9.142;2023-05-16T14:45:32;12.20;1.00
46438;DHT22;32137;48.728;9.142;2023-05-16T14:47:57;12.20;1.00
46438;DHT22;32137;48.728;9.142;2023-05-16T14:50:23;12.10;1.00
46438;DHT22;32137;48.728;9.142;2023-05-16T14:52:49;12.20;1.00
46438;DHT22;32137;48.728;9.142;2023-05-16T14:55:14;12.20;1.00
46438;DHT22;32137;48.728;9.142;2023-05-16T14:57:40;12.10;1.00
46438;DHT22;32137;48.728;9.142;2023-05-16T15:00:06;12.10;1.00
46438;DHT22;32137;48.728;9.142;2023-05-16T15:02:31;12.20;1.00
46438;DHT22;32137;48.728;9.142;2023-05-16T15:04:57;12.20;1.00
46438;DHT22;32137;48.728;9.142;2023-05-16T15:07:23;12.30;1.00
46438;DHT22;32137;48.728;9.142;2023-05-16T15:09:49;12.30;99.90
46438;DHT22;32137;48.728;9.142;2023-05-16T15:12:15;12.30;99.90
46438;DHT22;32137;48.728;9.142;2023-05-16T15:14:40;12.30;99.90
46438;DHT22;32137;48.728;9.142;2023-05-16T15:17:06;12.30;1.00
46438;DHT22;32137;48.728;9.142;2023-05-16T15:19:31;12.30;99.90
46438;DHT22;32137;48.728;9.142;2023-05-16T15:21:57;12.40;99.90
46438;DHT22;32137;48.728;9.142;2023-05-16T15:24:23;12.40;99.90
46438;DHT22;32137;48.728;9.142;2023-05-16T15:26:48;12.40;99.90
46438;DHT22;32137;48.728;9.142;2023-05-16T15:29:14;12.40;99.90
46438;DHT22;32137;48.728;9.142;2023-05-16T15:31:39;12.40;99.90
46438;DHT22;32137;48.728;9.142;2023-05-16T15:34:05;12.40;99.90
46438;DHT22;32137;48.728;9.142;2023-05-16T15:36:32;12.50;99.90
46438;DHT22;32137;48.728;9.142;2023-05-16T15:38:58;12.50;99.90
46438;DHT22;32137;48.728;9.142;2023-05-16T15:41:23;12.60;99.90
46438;DHT22;32137;48.728;9.142;2023-05-16T15:43:49;12.60;99.90